Time;durP1;ratioP1;P1;durP2;ratioP2;P2;SDS_P1;SDS_P2;PMS_P1;PMS_P2;Temp;Humidity;BMP_temperature;BMP_pressure;BME280_temperature;BME280_humidity;BME280_pressure;Samples;Min_cycle;Max_cycle;Signal;HPM_P1;HPM_P2
2022/09/14 00:01:22;;;;;;;2.00;1.80;;;;;;;14.83;84.95;99302.41;104885;1281;25626;-81
2022/09/14 00:04:14;;;;;;;2.00;1.90;;;;;;;14.81;84.86;99297.70;105669;1281;23979;-78
2022/09/14 00:06:41;;;;;;;2.00;1.50;;;;;;;14.78;84.10;99299.60;105828;1281;24388;-77
2022/09/14 00:09:17;;;;;;;2.00;1.80;;;;;;;14.76;84.17;99295.59;105880;1281;23981;-76
2022/09/14 00:11:45;;;;;;;2.00;1.90;;;;;;;14.80;84.10;99297.75;105991;1281;24245;-80
2022/09/14 00:14:14;;;;;;;1.70;1.60;;;;;;;14.82;83.73;99296.07;106071;1274;25584;-81
2022/09/14 00:16:42;;;;;;;2.00;1.80;;;;;;;14.81;83.71;99295.94;105937;1277;26581;-75
2022/09/14 00:19:18;;;;;;;2.60;2.40;;;;;;;14.80;83.76;99302.53;106052;1274;26642;-79
2022/09/14 00:21:48;;;;;;;2.50;2.10;;;;;;;14.75;83.66;99297.74;105919;1276;22574;-80
2022/09/14 00:24:15;;;;;;;2.50;2.30;;;;;;;14.74;83.76;99300.09;106097;1276;22613;-76
2022/09/14 00:26:42;;;;;;;2.20;2.10;;;;;;;14.73;84.04;99297.84;105966;1276;24723;-81
2022/09/14 00:29:10;;;;;;;2.90;2.60;;;;;;;14.68;83.80;99294.48;105986;1274;25294;-80
2022/09/14 00:31:38;;;;;;;1.90;1.80;;;;;;;14.67;83.84;99292.26;105860;1275;25385;-80
2022/09/14 00:34:08;;;;;;;2.40;2.20;;;;;;;14.61;84.08;99292.17;105829;1275;22688;-81
2022/09/14 00:36:41;;;;;;;2.50;2.30;;;;;;;14.56;84.31;99286.33;106010;1276;22658;-77
2022/09/14 00:39:08;;;;;;;2.90;2.70;;;;;;;14.55;84.27;99282.30;106048;1276;25253;-78
2022/09/14 00:41:38;;;;;;;2.70;2.50;;;;;;;14.55;84.48;99279.30;106046;1276;25395;-79
2022/09/14 00:44:11;;;;;;;2.40;2.20;;;;;;;14.54;84.56;99281.49;106016;1276;22652;-76
2022/09/14 00:46:50;;;;;;;2.90;2.40;;;;;;;14.48;84.41;99285.96;106078;1276;22634;-76
2022/09/14 00:49:25;;;;;;;2.60;2.40;;;;;;;14.46;84.55;99284.82;106563;1274;22650;-78
2022/09/14 00:52:16;;;;;;;4.60;2.80;;;;;;;14.38;84.66;99283.90;107002;1274;22655;-76
2022/09/14 00:54:55;;;;;;;2.60;2.40;;;;;;;14.29;84.82;99285.88;107228;1276;24396;-75
2022/09/14 00:57:25;;;;;;;2.60;2.40;;;;;;;14.27;84.95;99286.69;106946;1281;25761;-78
2022/09/14 00:59:53;;;;;;;2.80;2.60;;;;;;;14.23;85.04;99291.46;105770;1281;22556;-81
2022/09/14 01:02:23;;;;;;;2.30;2.20;;;;;;;14.24;85.17;99293.89;106781;1285;22721;-82
2022/09/14 01:04:51;;;;;;;3.10;2.80;;;;;;;14.19;85.04;99298.14;107386;1290;23037;-79
2022/09/14 01:07:24;;;;;;;2.40;2.20;;;;;;;14.16;85.12;99299.17;106330;1290;25400;-83
2022/09/14 01:09:59;;;;;;;2.80;2.60;;;;;;;14.14;85.22;99300.34;104697;1290;25679;-87
2022/09/14 01:12:38;;;;;;;2.80;2.60;;;;;;;14.10;85.34;99300.83;104629;1290;22576;-83
2022/09/14 01:15:15;;;;;;;3.00;2.50;;;;;;;14.07;85.33;99295.97;104639;1285;25259;-78
2022/09/14 01:17:51;;;;;;;2.60;2.40;;;;;;;14.02;85.37;99297.77;105083;1284;22543;-76
2022/09/14 01:20:26;;;;;;;3.00;2.60;;;;;;;13.96;85.55;99290.75;105219;1281;25383;-76
2022/09/14 01:23:17;;;;;;;2.80;2.60;;;;;;;13.94;85.70;99290.69;105581;1276;22531;-77
2022/09/14 01:25:46;;;;;;;4.30;3.00;;;;;;;13.99;86.03;99283.39;105979;1276;22559;-80
2022/09/14 01:28:39;;;;;;;3.40;3.10;;;;;;;14.01;86.03;99282.63;105974;1276;25304;-77
2022/09/14 01:31:24;;;;;;;3.30;3.00;;;;;;;14.02;86.02;99280.42;105960;1276;23968;-79
2022/09/14 01:33:59;;;;;;;3.50;3.20;;;;;;;14.04;86.19;99278.40;106033;1276;25255;-77
2022/09/14 01:36:28;;;;;;;5.20;3.80;;;;;;;14.03;86.11;99276.33;106179;1275;23196;-78
2022/09/14 01:38:56;;;;;;;3.90;3.60;;;;;;;14.02;85.92;99274.61;106032;1276;25605;-79
2022/09/14 01:41:29;;;;;;;3.90;3.60;;;;;;;14.03;86.28;99268.04;105811;1276;24220;-79
2022/09/14 01:44:03;;;;;;;4.10;3.80;;;;;;;14.05;86.36;99265.80;106002;1276;24307;-79
2022/09/14 01:46:38;;;;;;;3.60;3.30;;;;;;;14.04;86.17;99269.39;106145;1274;24254;-76
2022/09/14 01:49:36;;;;;;;3.60;3.30;;;;;;;13.99;86.03;99271.88;105892;1276;25242;-79
2022/09/14 01:52:17;;;;;;;4.30;4.00;;;;;;;13.96;86.33;99266.36;106135;1274;26595;-80
2022/09/14 01:55:03;;;;;;;5.10;4.70;;;;;;;13.94;86.42;99262.36;106096;1276;26511;-80
2022/09/14 01:57:36;;;;;;;5.40;4.90;;;;;;;13.90;86.63;99260.25;105937;1276;22557;-79
2022/09/14 02:00:09;;;;;;;6.80;6.20;;;;;;;13.89;86.82;99259.03;105996;1275;23991;-79
2022/09/14 02:02:45;;;;;;;6.90;6.40;;;;;;;13.89;87.02;99258.50;105951;1276;22974;-79
2022/09/14 02:05:18;;;;;;;7.30;6.60;;;;;;;13.88;87.24;99258.54;106002;1276;22519;-83
2022/09/14 02:07:45;;;;;;;8.00;6.80;;;;;;;13.89;87.54;99251.41;105920;1276;25457;-80
2022/09/14 02:10:15;;;;;;;9.10;7.20;;;;;;;13.94;87.72;99253.35;105638;1279;22538;-79
2022/09/14 02:12:43;;;;;;;7.30;6.60;;;;;;;13.97;87.68;99250.37;105663;1281;22575;-84
2022/09/14 02:15:14;;;;;;;7.50;6.80;;;;;;;13.95;87.94;99252.05;105592;1281;22559;-84
2022/09/14 02:17:41;;;;;;;7.90;7.20;;;;;;;13.93;87.98;99250.36;105724;1281;24477;-79
2022/09/14 02:20:20;;;;;;;7.40;6.80;;;;;;;13.93;88.27;99249.13;105651;1281;22536;-77
2022/09/14 02:22:49;;;;;;;7.70;7.00;;;;;;;13.94;88.30;99251.39;105520;1281;24268;-77
2022/09/14 02:25:16;;;;;;;9.00;8.10;;;;;;;13.98;88.47;99250.01;105106;1284;22579;-75
2022/09/14 02:27:43;;;;;;;8.50;7.60;;;;;;;14.01;88.38;99250.05;105134;1282;22608;-79
2022/09/14 02:30:11;;;;;;;8.80;7.90;;;;;;;13.99;88.43;99249.77;105603;1281;22538;-76
2022/09/14 02:32:58;;;;;;;8.30;7.60;;;;;;;14.01;88.51;99255.16;105548;1281;24315;-79
2022/09/14 02:35:35;;;;;;;8.90;8.10;;;;;;;14.01;88.61;99254.83;105521;1279;23460;-78
2022/09/14 02:38:14;;;;;;;9.70;8.90;;;;;;;14.04;88.70;99256.29;105496;1281;22556;-77
2022/09/14 02:40:57;;;;;;;10.50;9.60;;;;;;;14.08;88.59;99257.36;105556;1281;22541;-79
2022/09/14 02:43:37;;;;;;;12.20;11.10;;;;;;;14.09;88.71;99259.10;105679;1276;22545;-80
2022/09/14 02:46:16;;;;;;;12.80;11.70;;;;;;;14.07;88.91;99259.70;105985;1276;26640;-81
2022/09/14 02:48:59;;;;;;;13.10;12.00;;;;;;;14.05;88.94;99247.58;106098;1274;25336;-82
2022/09/14 02:51:37;;;;;;;12.20;11.00;;;;;;;14.07;88.66;99248.02;105976;1275;25231;-81
2022/09/14 02:54:12;;;;;;;14.00;12.70;;;;;;;14.12;88.85;99255.78;106126;1275;22537;-82
2022/09/14 02:56:39;;;;;;;15.60;14.30;;;;;;;14.11;88.65;99253.89;105413;1281;22633;-83
2022/09/14 02:59:05;;;;;;;13.90;12.70;;;;;;;14.08;88.84;99257.17;105519;1284;23928;-82
2022/09/14 03:01:33;;;;;;;13.40;12.30;;;;;;;14.10;88.96;99255.52;105484;1284;23330;-82
2022/09/14 03:04:00;;;;;;;15.60;14.10;;;;;;;14.13;88.99;99252.05;105192;1283;23218;-79
2022/09/14 03:06:27;;;;;;;15.60;14.30;;;;;;;14.13;89.28;99250.25;105245;1284;22559;-79
2022/09/14 03:08:54;;;;;;;16.00;14.50;;;;;;;14.14;89.00;99251.10;105521;1281;22552;-82
2022/09/14 03:11:21;;;;;;;15.10;13.70;;;;;;;14.15;89.17;99252.83;105191;1281;22885;-80
2022/09/14 03:13:48;;;;;;;14.20;12.90;;;;;;;14.15;89.13;99252.30;105281;1281;22575;-82
2022/09/14 03:16:17;;;;;;;13.00;11.80;;;;;;;14.17;89.01;99261.08;105943;1276;26569;-82
2022/09/14 03:18:44;;;;;;;13.80;12.60;;;;;;;14.12;89.08;99252.23;105838;1276;22545;-79
2022/09/14 03:21:14;;;;;;;14.20;13.00;;;;;;;14.17;89.20;99257.02;105983;1276;22712;-79
2022/09/14 03:23:47;;;;;;;15.50;14.20;;;;;;;14.19;89.24;99256.90;106096;1274;24158;-77
2022/09/14 03:26:16;;;;;;;17.10;15.60;;;;;;;14.22;89.35;99255.71;105813;1274;22564;-80
2022/09/14 03:28:43;;;;;;;17.40;15.90;;;;;;;14.24;89.19;99253.35;106027;1274;25498;-79
2022/09/14 03:31:12;;;;;;;17.40;15.70;;;;;;;14.24;89.07;99252.09;105960;1276;24314;-84
2022/09/14 03:33:39;;;;;;;16.10;14.60;;;;;;;14.20;88.92;99248.90;106048;1275;22560;-80
2022/09/14 03:36:11;;;;;;;16.70;15.00;;;;;;;14.17;89.04;99248.68;105997;1275;25419;-77
2022/09/14 03:38:41;;;;;;;16.80;15.20;;;;;;;14.16;89.28;99241.13;105718;1276;25267;-79
2022/09/14 03:41:09;;;;;;;20.60;18.70;;;;;;;14.14;89.30;99236.25;105952;1276;23788;-76
2022/09/14 03:43:36;;;;;;;21.60;19.40;;;;;;;14.15;89.56;99232.83;106076;1276;23139;-80
2022/09/14 03:46:23;;;;;;;17.90;16.10;;;;;;;14.18;89.52;99219.77;105694;1276;22876;-76
2022/09/14 03:48:51;;;;;;;17.70;16.00;;;;;;;14.21;89.19;99215.58;106053;1276;22559;-78
2022/09/14 03:51:17;;;;;;;17.80;16.20;;;;;;;14.20;89.05;99229.93;105777;1276;22546;-79
2022/09/14 03:53:44;;;;;;;17.90;16.30;;;;;;;14.15;88.83;99236.55;105238;1282;25257;-77
2022/09/14 03:56:21;;;;;;;18.80;17.10;;;;;;;14.14;89.05;99238.70;105184;1282;22773;-82
2022/09/14 03:58:48;;;;;;;19.20;17.40;;;;;;;14.14;89.02;99239.60;105093;1281;24568;-78
2022/09/14 04:01:18;;;;;;;18.90;17.30;;;;;;;14.13;88.97;99239.83;105236;1281;25250;-75
2022/09/14 04:03:46;;;;;;;19.00;17.30;;;;;;;14.12;88.92;99240.73;105357;1281;22545;-79
2022/09/14 04:06:14;;;;;;;18.50;16.80;;;;;;;14.10;88.94;99241.69;105055;1281;24533;-75
2022/09/14 04:08:43;;;;;;;19.20;17.10;;;;;;;14.09;88.99;99239.09;105117;1282;22556;-74
2022/09/14 04:11:16;;;;;;;18.60;17.00;;;;;;;14.09;88.94;99234.48;105150;1279;25365;-74
2022/09/14 04:13:44;;;;;;;17.90;16.10;;;;;;;14.10;88.94;99232.15;105983;1276;22654;-76
2022/09/14 04:16:11;;;;;;;17.00;15.30;;;;;;;14.12;88.82;99233.84;105402;1281;25339;-76
2022/09/14 04:18:39;;;;;;;19.40;17.60;;;;;;;14.10;88.53;99229.13;105129;1281;23595;-76
2022/09/14 04:21:12;;;;;;;19.80;17.90;;;;;;;14.09;88.61;99231.65;105117;1281;22541;-80
2022/09/14 04:23:39;;;;;;;18.80;16.90;;;;;;;14.07;88.62;99236.70;105244;1281;23027;-80
2022/09/14 04:26:28;;;;;;;18.10;16.20;;;;;;;14.05;88.65;99233.07;105083;1281;22656;-81
2022/09/14 04:28:56;;;;;;;18.20;16.30;;;;;;;14.04;88.70;99228.14;105366;1281;25269;-77
2022/09/14 04:31:24;;;;;;;17.80;16.10;;;;;;;14.05;88.78;99226.87;105122;1282;24559;-79
2022/09/14 04:33:55;;;;;;;21.70;19.50;;;;;;;14.06;88.66;99223.98;104988;1281;22756;-78
2022/09/14 04:36:27;;;;;;;19.00;17.30;;;;;;;14.06;88.69;99222.05;105040;1281;22614;-79
2022/09/14 04:38:56;;;;;;;19.10;17.20;;;;;;;14.07;88.69;99224.11;105449;1280;23858;-77
2022/09/14 04:41:24;;;;;;;18.50;16.80;;;;;;;14.10;88.67;99223.48;105450;1281;22904;-80
2022/09/14 04:43:53;;;;;;;18.10;16.30;;;;;;;14.09;88.35;99230.40;105588;1281;25534;-76
2022/09/14 04:46:33;;;;;;;18.70;17.10;;;;;;;14.09;88.56;99229.02;105447;1281;24446;-80
2022/09/14 04:49:00;;;;;;;18.60;16.70;;;;;;;14.10;88.30;99234.23;105553;1281;22559;-78
2022/09/14 04:51:29;;;;;;;17.00;15.50;;;;;;;14.08;88.22;99223.20;105521;1276;25495;-85
2022/09/14 04:53:58;;;;;;;15.90;14.60;;;;;;;14.08;88.15;99225.86;105881;1276;25250;-82
2022/09/14 04:56:26;;;;;;;16.80;15.20;;;;;;;14.11;88.23;99223.63;105847;1276;22588;-85
2022/09/14 04:58:57;;;;;;;16.20;14.70;;;;;;;14.14;88.21;99224.56;105760;1275;24332;-81
2022/09/14 05:01:30;;;;;;;17.40;15.80;;;;;;;14.16;88.18;99225.16;105869;1275;22601;-82
2022/09/14 05:03:58;;;;;;;17.30;15.70;;;;;;;14.18;88.06;99227.77;105978;1275;23020;-83
2022/09/14 05:06:27;;;;;;;15.70;14.20;;;;;;;14.21;87.97;99229.92;106075;1274;24551;-79
2022/09/14 05:08:55;;;;;;;16.10;14.50;;;;;;;14.24;88.11;99230.30;105949;1276;22559;-81
2022/09/14 05:11:25;;;;;;;17.30;13.60;;;;;;;14.30;87.88;99232.55;105798;1276;22556;-80
2022/09/14 05:13:52;;;;;;;15.80;14.30;;;;;;;14.32;87.69;99233.70;105925;1274;24560;-83
2022/09/14 05:16:31;;;;;;;15.00;13.50;;;;;;;14.36;87.50;99232.13;106129;1276;24175;-81
2022/09/14 05:19:06;;;;;;;14.60;13.30;;;;;;;14.37;87.43;99233.51;107529;1274;22904;-83
2022/09/14 05:21:36;;;;;;;16.10;14.40;;;;;;;14.41;87.40;99235.45;109155;1274;22584;-76
2022/09/14 05:24:06;;;;;;;14.70;13.30;;;;;;;14.44;87.28;99229.82;107920;1274;25382;-78
2022/09/14 05:26:33;;;;;;;15.70;14.10;;;;;;;14.47;87.29;99228.44;106204;1276;22617;-80
2022/09/14 05:29:02;;;;;;;14.80;13.40;;;;;;;14.50;87.22;99230.63;106252;1276;25261;-78
2022/09/14 05:31:30;;;;;;;14.50;13.10;;;;;;;14.52;87.13;99226.11;106222;1276;22565;-79
2022/09/14 05:33:58;;;;;;;14.20;12.80;;;;;;;14.56;87.02;99224.17;106243;1276;25377;-76
2022/09/14 05:36:25;;;;;;;15.60;13.90;;;;;;;14.60;87.06;99224.14;106165;1276;25236;-82
2022/09/14 05:38:52;;;;;;;15.60;14.20;;;;;;;14.63;87.28;99224.75;106122;1274;26618;-76
2022/09/14 05:41:19;;;;;;;14.20;13.00;;;;;;;14.69;87.28;99223.73;106053;1276;22695;-77
2022/09/14 05:43:47;;;;;;;14.50;13.10;;;;;;;14.72;86.89;99223.30;105623;1281;23281;-76
2022/09/14 05:46:21;;;;;;;14.70;13.40;;;;;;;14.78;87.02;99229.94;105497;1279;22548;-77
2022/09/14 05:48:50;;;;;;;15.00;13.60;;;;;;;14.79;86.94;99229.38;105801;1279;23193;-76
2022/09/14 05:51:24;;;;;;;16.40;14.70;;;;;;;14.77;86.88;99229.09;105750;1279;24006;-77
2022/09/14 05:53:53;;;;;;;17.40;15.60;;;;;;;14.76;86.97;99228.05;105564;1279;26514;-77
2022/09/14 05:56:21;;;;;;;16.10;14.40;;;;;;;14.75;87.02;99225.78;105531;1279;25385;-77
2022/09/14 05:58:49;;;;;;;16.20;14.50;;;;;;;14.73;87.15;99219.36;105323;1281;23507;-76
2022/09/14 06:01:21;;;;;;;15.90;14.50;;;;;;;14.82;87.35;99224.44;105309;1275;22535;-78
2022/09/14 06:03:49;;;;;;;19.80;17.20;;;;;;;14.89;87.37;99220.23;106033;1276;23480;-74
2022/09/14 06:06:18;;;;;;;21.20;17.70;;;;;;;14.90;87.22;99219.31;105985;1276;25321;-77
2022/09/14 06:08:48;;;;;;;18.90;17.10;;;;;;;14.89;87.33;99217.08;105901;1276;22791;-77
2022/09/14 06:11:18;;;;;;;20.10;18.00;;;;;;;14.83;87.26;99221.41;105764;1275;25432;-78
2022/09/14 06:13:48;;;;;;;21.90;19.70;;;;;;;14.80;87.36;99227.21;105901;1276;25329;-76
2022/09/14 06:16:20;;;;;;;22.20;19.90;;;;;;;14.79;87.56;99225.29;106146;1275;22528;-77
2022/09/14 06:18:48;;;;;;;21.30;19.30;;;;;;;14.75;87.38;99230.77;106235;1276;22699;-81
2022/09/14 06:21:18;;;;;;;22.30;20.00;;;;;;;14.70;87.52;99234.72;106126;1276;22552;-80
2022/09/14 06:23:47;;;;;;;24.10;21.70;;;;;;;14.66;87.69;99239.33;106026;1276;22604;-77
2022/09/14 06:26:14;;;;;;;23.70;20.20;;;;;;;14.67;87.72;99242.11;106041;1276;24337;-77
2022/09/14 06:28:41;;;;;;;23.40;21.30;;;;;;;14.67;87.68;99242.48;105940;1276;22711;-76
2022/09/14 06:31:12;;;;;;;23.70;21.60;;;;;;;14.63;87.91;99243.33;106176;1276;23250;-80
2022/09/14 06:33:46;;;;;;;24.50;21.80;;;;;;;14.64;87.53;99246.33;106037;1274;25531;-79
2022/09/14 06:36:18;;;;;;;23.70;21.40;;;;;;;14.61;87.49;99247.84;105864;1276;24442;-79
2022/09/14 06:38:48;;;;;;;21.20;19.20;;;;;;;14.58;87.63;99252.09;105973;1275;25251;-74
2022/09/14 06:41:19;;;;;;;21.40;19.40;;;;;;;14.53;87.45;99252.46;105405;1281;22584;-77
2022/09/14 06:43:47;;;;;;;19.80;17.90;;;;;;;14.53;87.55;99250.17;105136;1281;25414;-74
2022/09/14 06:46:22;;;;;;;20.90;18.30;;;;;;;14.55;87.65;99250.77;105241;1281;22669;-75
2022/09/14 06:48:54;;;;;;;21.40;19.10;;;;;;;14.59;87.57;99255.36;105264;1281;22569;-80
2022/09/14 06:51:31;;;;;;;19.30;17.30;;;;;;;14.62;87.40;99255.96;105412;1281;25497;-75
2022/09/14 06:53:59;;;;;;;18.10;16.20;;;;;;;14.65;87.05;99259.56;105471;1281;22727;-77
2022/09/14 06:56:29;;;;;;;17.50;15.90;;;;;;;14.64;86.73;99266.50;105449;1281;22594;-77
2022/09/14 06:58:58;;;;;;;17.90;16.30;;;;;;;14.67;86.75;99266.39;105530;1276;22720;-75
2022/09/14 07:01:25;;;;;;;17.90;16.10;;;;;;;14.71;86.85;99268.66;105918;1275;24200;-72
2022/09/14 07:03:53;;;;;;;19.90;17.80;;;;;;;14.75;86.55;99271.36;105980;1276;23020;-77
2022/09/14 07:06:22;;;;;;;19.10;17.10;;;;;;;14.74;86.22;99267.66;105848;1276;25389;-73
2022/09/14 07:08:51;;;;;;;17.50;15.50;;;;;;;14.78;86.06;99263.77;105822;1276;25314;-76
2022/09/14 07:11:21;;;;;;;15.30;13.60;;;;;;;14.85;86.12;99264.59;105796;1276;22529;-76
2022/09/14 07:13:48;;;;;;;17.60;15.80;;;;;;;14.92;85.84;99261.08;106003;1274;22750;-74
2022/09/14 07:16:14;;;;;;;18.10;16.40;;;;;;;15.02;85.46;99272.13;106071;1276;22552;-76
2022/09/14 07:18:43;;;;;;;18.40;16.60;;;;;;;15.07;85.30;99273.86;105821;1276;22669;-78
2022/09/14 07:21:14;;;;;;;17.10;15.40;;;;;;;15.06;85.16;99271.40;105811;1279;22703;-77
2022/09/14 07:23:43;;;;;;;15.40;14.00;;;;;;;15.10;85.18;99268.23;105718;1276;22559;-77
2022/09/14 07:26:11;;;;;;;17.30;15.20;;;;;;;15.15;85.38;99271.89;105884;1276;23079;-78
2022/09/14 07:28:39;;;;;;;19.80;17.80;;;;;;;15.23;85.36;99268.53;105902;1276;22747;-73
2022/09/14 07:31:14;;;;;;;18.50;16.60;;;;;;;15.34;85.08;99281.30;105926;1276;22823;-74
2022/09/14 07:33:41;;;;;;;16.40;14.90;;;;;;;15.39;84.68;99277.88;105904;1274;25249;-76
2022/09/14 07:36:10;;;;;;;16.80;15.20;;;;;;;15.47;84.44;99270.80;105837;1279;25439;-75
2022/09/14 07:38:37;;;;;;;18.10;16.40;;;;;;;15.51;84.34;99272.20;105747;1274;22557;-73
2022/09/14 07:41:21;;;;;;;15.40;14.00;;;;;;;15.54;84.37;99271.32;106083;1274;22617;-78
2022/09/14 07:43:50;;;;;;;16.40;14.90;;;;;;;15.61;83.90;99269.97;105747;1274;25303;-76
2022/09/14 07:46:17;;;;;;;15.60;14.00;;;;;;;15.70;83.58;99268.26;105950;1275;22547;-77
2022/09/14 07:48:45;;;;;;;14.50;13.10;;;;;;;15.80;83.09;99265.31;105827;1276;24468;-77
2022/09/14 07:51:13;;;;;;;17.40;14.10;;;;;;;15.89;82.87;99261.83;105823;1275;24244;-74
2022/09/14 07:53:42;;;;;;;15.70;13.90;;;;;;;15.99;82.26;99258.36;105961;1276;23136;-76
2022/09/14 07:56:11;;;;;;;11.80;10.60;;;;;;;16.03;81.72;99251.27;105984;1275;24382;-76
2022/09/14 07:58:38;;;;;;;12.50;11.30;;;;;;;16.06;81.24;99255.90;106069;1276;22765;-76
2022/09/14 08:01:07;;;;;;;13.00;11.80;;;;;;;16.07;80.23;99255.67;105887;1275;22822;-75
2022/09/14 08:03:35;;;;;;;16.60;11.50;;;;;;;16.05;80.07;99255.24;105940;1276;22750;-75
2022/09/14 08:06:14;;;;;;;11.30;10.10;;;;;;;16.09;79.66;99267.14;105745;1277;23067;-75
2022/09/14 08:08:43;;;;;;;10.90;9.80;;;;;;;16.10;78.86;99260.31;105856;1276;23924;-76
2022/09/14 08:11:16;;;;;;;11.90;9.40;;;;;;;16.16;79.11;99263.08;106015;1275;22721;-76
2022/09/14 08:13:45;;;;;;;12.80;9.40;;;;;;;16.27;79.19;99267.83;105886;1276;22716;-73
2022/09/14 08:16:13;;;;;;;11.20;8.40;;;;;;;16.39;78.45;99264.73;105669;1277;23138;-75
2022/09/14 08:18:40;;;;;;;11.90;8.40;;;;;;;16.49;78.19;99262.11;105469;1279;25539;-76
2022/09/14 08:21:13;;;;;;;10.20;9.10;;;;;;;16.49;77.82;99261.91;105431;1277;22682;-75
2022/09/14 08:23:42;;;;;;;12.40;9.70;;;;;;;16.53;77.66;99261.02;105683;1279;23438;-76
2022/09/14 08:26:12;;;;;;;10.90;8.40;;;;;;;16.54;77.38;99256.71;105785;1277;22526;-77
2022/09/14 08:28:39;;;;;;;11.40;8.50;;;;;;;16.66;77.65;99257.84;105427;1279;23955;-76
2022/09/14 08:31:10;;;;;;;9.60;7.40;;;;;;;16.86;77.06;99265.70;105488;1279;24084;-76
2022/09/14 08:33:43;;;;;;;9.70;7.40;;;;;;;16.97;76.19;99265.81;105536;1279;22658;-76
2022/09/14 08:36:12;;;;;;;11.40;7.90;;;;;;;17.02;75.14;99269.10;105885;1276;24291;-77
2022/09/14 08:38:39;;;;;;;11.50;7.70;;;;;;;17.01;74.89;99277.55;105927;1276;24134;-74
2022/09/14 08:41:31;;;;;;;11.40;6.40;;;;;;;17.03;73.95;99265.85;105913;1276;22585;-76
2022/09/14 08:44:17;;;;;;;13.20;6.80;;;;;;;17.08;74.15;99265.80;105866;1275;22485;-80
2022/09/14 08:47:01;;;;;;;6.70;5.70;;;;;;;17.16;73.44;99270.15;105831;1276;22499;-76
2022/09/14 08:49:55;;;;;;;10.50;5.30;;;;;;;17.22;72.37;99257.58;105860;1276;22525;-74
2022/09/14 08:52:46;;;;;;;9.20;5.40;;;;;;;17.25;72.03;99257.08;105966;1276;22592;-75
2022/09/14 08:55:19;;;;;;;6.40;5.50;;;;;;;17.25;71.64;99256.38;105864;1275;22661;-76
2022/09/14 08:57:52;;;;;;;10.90;5.40;;;;;;;17.30;71.51;99259.27;105884;1276;22725;-80
2022/09/14 09:00:34;;;;;;;10.10;5.60;;;;;;;17.39;71.16;99256.28;105882;1274;25712;-77
2022/09/14 09:03:39;;;;;;;6.30;5.00;;;;;;;17.51;70.49;99252.42;105672;1277;23038;-76
2022/09/14 09:06:25;;;;;;;8.70;5.00;;;;;;;17.61;70.23;99251.16;105975;1276;25329;-76
2022/09/14 09:09:31;;;;;;;6.40;4.50;;;;;;;17.54;69.45;99242.30;105908;1276;24335;-77
2022/09/14 09:11:59;;;;;;;;;;;;;;;17.46;70.24;99246.63;106006;1276;24297;-76
2022/09/14 09:14:37;;;;;;;11.00;6.20;;;;;;;17.43;70.53;99245.42;105893;1276;22607;-77
2022/09/14 09:17:17;;;;;;;8.70;5.10;;;;;;;17.33;70.21;99242.38;105765;1278;24256;-77
2022/09/14 09:19:55;;;;;;;7.40;5.70;;;;;;;17.27;70.14;99245.90;105839;1276;22605;-77
2022/09/14 09:22:26;;;;;;;6.70;4.60;;;;;;;17.19;70.38;99251.15;106001;1276;22608;-77
2022/09/14 09:24:54;;;;;;;7.20;5.10;;;;;;;17.15;70.57;99255.67;105965;1274;22608;-75
2022/09/14 09:27:23;;;;;;;8.00;5.40;;;;;;;17.11;69.75;99251.77;105800;1276;25453;-74
2022/09/14 09:29:50;;;;;;;7.50;5.60;;;;;;;17.03;69.92;99244.70;105921;1276;22546;-76
2022/09/14 09:32:22;;;;;;;8.90;5.80;;;;;;;16.93;70.20;99251.08;105774;1276;24302;-75
2022/09/14 09:35:14;;;;;;;10.90;5.40;;;;;;;16.87;70.34;99252.32;105984;1276;25214;-76
2022/09/14 09:37:48;;;;;;;6.90;4.10;;;;;;;16.86;70.77;99251.31;105803;1277;22712;-77
2022/09/14 09:40:27;;;;;;;6.90;5.40;;;;;;;16.96;70.97;99251.31;106019;1276;22703;-77
2022/09/14 09:43:12;;;;;;;9.90;4.90;;;;;;;17.03;70.47;99247.89;105869;1277;25982;-78
2022/09/14 09:46:00;;;;;;;5.90;4.80;;;;;;;17.02;69.97;99245.09;105922;1274;22798;-79
2022/09/14 09:48:47;;;;;;;7.00;4.20;;;;;;;17.03;70.05;99247.89;105964;1278;22608;-77
2022/09/14 09:51:29;;;;;;;7.10;4.60;;;;;;;16.95;69.60;99245.30;106129;1276;24232;-75
2022/09/14 09:54:04;;;;;;;6.20;4.90;;;;;;;17.07;69.65;99252.69;105962;1276;25258;-77
2022/09/14 09:56:35;;;;;;;6.90;4.50;;;;;;;17.13;69.42;99250.77;105909;1276;24571;-78
2022/09/14 09:59:19;;;;;;;6.40;4.10;;;;;;;17.13;68.70;99250.27;105934;1277;22697;-78
2022/09/14 10:01:46;;;;;;;5.30;3.30;;;;;;;17.28;67.93;99250.34;106038;1276;22651;-75
2022/09/14 10:04:23;;;;;;;4.90;4.00;;;;;;;17.43;67.24;99242.75;106348;1274;22680;-77
2022/09/14 10:06:56;;;;;;;5.30;4.30;;;;;;;17.37;67.13;99245.20;105914;1276;22619;-79
2022/09/14 10:09:28;;;;;;;4.60;4.20;;;;;;;17.48;66.84;99243.35;105772;1276;22660;-78
2022/09/14 10:12:01;;;;;;;5.90;5.00;;;;;;;17.78;66.80;99244.53;105775;1278;24152;-77
2022/09/14 10:14:27;;;;;;;6.10;5.00;;;;;;;18.03;65.70;99247.20;106003;1276;22646;-76
2022/09/14 10:17:05;;;;;;;5.50;4.70;;;;;;;18.20;64.71;99241.23;105730;1277;23959;-78
2022/09/14 10:19:32;;;;;;;7.50;5.30;;;;;;;18.35;64.04;99243.23;105318;1282;25617;-76
2022/09/14 10:22:23;;;;;;;7.30;5.10;;;;;;;18.42;63.84;99251.86;105362;1281;22766;-77
2022/09/14 10:25:01;;;;;;;8.40;5.00;;;;;;;18.62;63.25;99249.61;105369;1281;22590;-78
2022/09/14 10:27:41;;;;;;;7.90;5.00;;;;;;;18.85;62.45;99249.46;105735;1281;22541;-77
2022/09/14 10:30:14;;;;;;;7.10;4.50;;;;;;;19.09;62.16;99249.43;105540;1281;23386;-76
2022/09/14 10:33:00;;;;;;;6.90;4.00;;;;;;;19.00;60.52;99249.24;105308;1282;22641;-72
2022/09/14 10:35:33;;;;;;;;;;;;;;;18.78;60.38;99253.45;105581;1281;22618;-77
2022/09/14 10:38:36;;;;;;;6.70;3.70;;;;;;;18.52;60.51;99254.65;105597;1276;25248;-75
2022/09/14 10:41:12;;;;;;;4.30;3.80;;;;;;;18.23;60.87;99251.02;105948;1274;25541;-76
2022/09/14 10:43:55;;;;;;;5.20;3.70;;;;;;;18.07;61.56;99251.38;105952;1276;25641;-77
2022/09/14 10:46:30;;;;;;;6.90;4.10;;;;;;;17.92;62.00;99253.86;105844;1278;24239;-73
2022/09/14 10:49:13;;;;;;;5.50;4.20;;;;;;;17.82;62.54;99256.58;105955;1276;22540;-77
2022/09/14 10:51:57;;;;;;;6.00;3.80;;;;;;;17.74;62.86;99251.50;105210;1282;22537;-76
2022/09/14 10:54:43;;;;;;;5.80;4.30;;;;;;;17.75;63.29;99256.06;105325;1282;22716;-73
2022/09/14 10:57:44;;;;;;;7.40;4.50;;;;;;;17.78;63.30;99256.95;105275;1281;22566;-77
2022/09/14 11:00:21;;;;;;;7.30;4.30;;;;;;;17.74;63.51;99256.83;105407;1281;24767;-76
2022/09/14 11:03:02;;;;;;;8.20;4.00;;;;;;;17.66;63.25;99251.77;105536;1281;25459;-77
2022/09/14 11:05:37;;;;;;;5.60;3.40;;;;;;;17.59;63.10;99250.92;105309;1281;25575;-79
2022/09/14 11:08:23;;;;;;;3.60;3.10;;;;;;;17.59;62.92;99254.47;105411;1281;22606;-73
2022/09/14 11:11:12;;;;;;;5.00;3.50;;;;;;;17.58;62.37;99259.15;105766;1276;25645;-74
2022/09/14 11:14:05;;;;;;;6.80;3.10;;;;;;;17.60;62.16;99254.40;105877;1278;24377;-75
2022/09/14 11:16:46;;;;;;;7.30;3.10;;;;;;;17.70;61.97;99253.13;105970;1274;22538;-73
2022/09/14 11:19:45;;;;;;;6.30;2.80;;;;;;;17.73;61.87;99253.02;105977;1276;24263;-77
2022/09/14 11:22:32;;;;;;;5.70;2.80;;;;;;;17.78;61.67;99259.83;105943;1276;22662;-75
2022/09/14 11:25:11;;;;;;;3.00;2.40;;;;;;;17.75;60.61;99259.49;105923;1277;22747;-81
2022/09/14 11:27:52;;;;;;;3.20;2.60;;;;;;;17.79;61.11;99255.64;105988;1274;25730;-78
2022/09/14 11:30:22;;;;;;;5.40;3.00;;;;;;;18.11;60.66;99254.06;106018;1278;25674;-76
2022/09/14 11:33:06;;;;;;;3.70;2.70;;;;;;;18.49;60.15;99245.57;106006;1274;22563;-78
2022/09/14 11:35:42;;;;;;;2.80;2.30;;;;;;;19.00;58.77;99239.41;105837;1278;22621;-77
2022/09/14 11:38:19;;;;;;;2.80;2.30;;;;;;;19.46;57.61;99234.46;105960;1277;24385;-76
2022/09/14 11:41:20;;;;;;;4.00;2.10;;;;;;;19.73;56.90;99234.13;105954;1274;22691;-76
2022/09/14 11:44:15;;;;;;;2.50;1.90;;;;;;;20.09;55.82;99231.65;105972;1279;25255;-77
2022/09/14 11:46:53;;;;;;;4.00;2.10;;;;;;;20.32;54.37;99233.34;105978;1278;22584;-74